createdAt,value
2019-05-17T00:02:17.483Z,9.67
2019-05-17T00:04:47.138Z,11.93
2019-05-17T00:07:16.750Z,11.50
2019-05-17T00:09:47.853Z,11.23
2019-05-17T00:12:17.362Z,14.33
2019-05-17T00:14:47.305Z,14.37
2019-05-17T00:17:17.367Z,9.83
2019-05-17T00:19:47.054Z,9.87
2019-05-17T00:22:16.685Z,12.43
2019-05-17T00:24:47.772Z,14.03
2019-05-17T00:27:17.331Z,11.73
2019-05-17T00:29:46.875Z,10.27
2019-05-17T00:32:17.084Z,10.17
2019-05-17T00:34:47.077Z,12.33
2019-05-17T00:37:17.416Z,11.50
2019-05-17T00:39:47.230Z,11.07
2019-05-17T00:42:17.147Z,11.17
2019-05-17T00:44:47.339Z,10.30
2019-05-17T00:47:17.219Z,11.67
2019-05-17T00:49:46.620Z,11.53
2019-05-17T00:52:16.721Z,10.83
2019-05-17T00:54:46.934Z,11.43
2019-05-17T00:57:16.699Z,11.30
2019-05-17T00:59:47.539Z,11.57
2019-05-17T01:02:16.929Z,11.00
2019-05-17T01:04:47.640Z,11.77
2019-05-17T01:07:17.808Z,11.83
2019-05-17T01:09:47.338Z,12.70
2019-05-17T01:12:16.591Z,11.57
2019-05-17T01:14:46.650Z,11.83
2019-05-17T01:17:16.518Z,11.73
2019-05-17T01:19:47.272Z,11.50
2019-05-17T01:22:16.975Z,10.43
2019-05-17T01:24:46.549Z,12.27
2019-05-17T01:27:17.229Z,14.57
2019-05-17T01:29:46.686Z,12.37
2019-05-17T01:32:17.213Z,11.93
2019-05-17T01:34:46.993Z,12.73
2019-05-17T01:37:17.182Z,15.00
2019-05-17T01:39:46.924Z,12.17
2019-05-17T01:42:17.245Z,13.43
2019-05-17T01:44:47.350Z,13.00
2019-05-17T01:47:16.800Z,12.87
2019-05-17T01:49:46.971Z,13.53
2019-05-17T01:52:16.860Z,13.50
2019-05-17T01:54:46.913Z,11.83
2019-05-17T01:57:16.817Z,13.27
2019-05-17T01:59:46.789Z,12.00
2019-05-17T02:02:20.036Z,12.27
2019-05-17T02:04:50.310Z,13.57
2019-05-17T02:07:19.665Z,12.87
2019-05-17T02:09:49.292Z,12.87
2019-05-17T02:12:18.465Z,13.07
2019-05-17T02:14:47.648Z,13.10
2019-05-17T02:17:17.450Z,12.33
2019-05-17T02:19:46.757Z,13.20
2019-05-17T02:22:17.865Z,12.40
2019-05-17T02:24:47.242Z,12.57
2019-05-17T02:27:16.600Z,12.00
2019-05-17T02:29:45.775Z,15.03
2019-05-17T02:32:15.108Z,14.13
2019-05-17T02:34:44.260Z,13.00
2019-05-17T02:37:13.725Z,12.87
2019-05-17T02:39:53.803Z,13.70
2019-05-17T02:42:15.890Z,13.53
2019-05-17T02:44:45.029Z,12.57
2019-05-17T02:47:14.212Z,13.23
2019-05-17T02:49:43.363Z,13.60
2019-05-17T02:52:12.678Z,13.33
2019-05-17T02:54:43.665Z,14.63
2019-05-17T02:57:14.278Z,12.80
2019-05-17T02:59:43.649Z,11.50
2019-05-17T03:02:12.941Z,13.03
2019-05-17T03:04:43.294Z,12.97
2019-05-17T03:07:13.745Z,14.20
2019-05-17T03:09:43.265Z,14.10
2019-05-17T03:12:12.994Z,14.87
2019-05-17T03:14:43.282Z,13.33
2019-05-17T03:17:13.986Z,14.90
2019-05-17T03:19:43.871Z,16.63
2019-05-17T03:22:13.398Z,14.30
2019-05-17T03:24:43.857Z,13.93
2019-05-17T03:27:13.775Z,14.77
2019-05-17T03:29:43.181Z,15.03
2019-05-17T03:32:17.301Z,13.80
2019-05-17T03:34:46.390Z,12.73
2019-05-17T03:37:16.530Z,13.37
2019-05-17T03:39:46.159Z,15.03
2019-05-17T03:42:15.497Z,14.30
2019-05-17T03:44:44.765Z,14.00
2019-05-17T03:47:13.939Z,14.47
2019-05-17T03:49:43.820Z,15.17
2019-05-17T03:52:13.790Z,14.17
2019-05-17T03:54:43.229Z,15.17
2019-05-17T03:57:13.535Z,16.83
2019-05-17T03:59:43.236Z,17.00
2019-05-17T04:02:12.586Z,13.00
2019-05-17T04:04:42.910Z,14.57
2019-05-17T04:07:12.961Z,14.93
2019-05-17T04:09:43.705Z,14.43
2019-05-17T04:12:13.724Z,14.43
2019-05-17T04:14:43.206Z,15.13
2019-05-17T04:17:13.305Z,19.13
2019-05-17T04:19:42.785Z,16.40
2019-05-17T04:22:13.795Z,15.93
2019-05-17T04:24:43.953Z,85.17
2019-05-17T04:27:13.694Z,72.07
2019-05-17T04:29:43.096Z,21.60
2019-05-17T04:32:13.119Z,16.87
2019-05-17T04:34:44.399Z,16.83
2019-05-17T04:37:13.590Z,16.63
2019-05-17T04:39:43.342Z,18.10
2019-05-17T04:42:13.583Z,17.67
2019-05-17T04:44:43.349Z,18.33
2019-05-17T04:47:13.591Z,18.50
2019-05-17T04:49:43.953Z,38.37
2019-05-17T04:52:13.899Z,29.13
2019-05-17T04:54:43.419Z,24.27
2019-05-17T04:57:13.291Z,23.60
2019-05-17T04:59:43.534Z,22.23
2019-05-17T05:02:13.333Z,21.73
2019-05-17T05:04:43.529Z,26.00
2019-05-17T05:07:13.886Z,25.00
2019-05-17T05:09:43.654Z,24.90
2019-05-17T05:12:13.098Z,23.17
2019-05-17T05:14:43.195Z,23.77
2019-05-17T05:17:12.906Z,40.97
2019-05-17T05:19:42.463Z,44.33
2019-05-17T05:22:13.501Z,28.63
2019-05-17T05:24:42.920Z,26.83
2019-05-17T05:27:12.112Z,25.93
2019-05-17T05:29:41.716Z,25.67
2019-05-17T05:32:11.825Z,28.33
2019-05-17T05:34:42.900Z,25.93
2019-05-17T05:37:12.551Z,26.97
2019-05-17T05:39:42.207Z,31.03
2019-05-17T05:42:13.811Z,25.60
2019-05-17T05:44:42.484Z,28.13
2019-05-17T05:47:11.837Z,26.97
2019-05-17T05:49:42.587Z,26.27
2019-05-17T05:52:12.548Z,26.10
2019-05-17T05:54:41.959Z,23.33
2019-05-17T05:57:12.604Z,28.30
2019-05-17T05:59:42.595Z,25.50
2019-05-17T06:02:12.302Z,25.70
2019-05-17T06:04:42.388Z,45.23
2019-05-17T06:07:12.906Z,32.30
2019-05-17T06:09:42.432Z,27.20
2019-05-17T06:12:23.413Z,30.17
2019-05-17T06:14:42.832Z,35.53
2019-05-17T06:17:12.576Z,31.63
2019-05-17T06:19:42.309Z,26.60
2019-05-17T06:22:11.994Z,23.23
2019-05-17T06:24:42.476Z,25.63
2019-05-17T06:27:12.345Z,24.23
2019-05-17T06:29:41.805Z,24.10
2019-05-17T06:32:11.885Z,24.53
2019-05-17T06:34:42.272Z,24.43
2019-05-17T06:37:12.938Z,23.17
2019-05-17T06:39:44.746Z,24.53
2019-05-17T06:42:14.229Z,21.37
2019-05-17T06:45:02.573Z,22.03
2019-05-17T06:47:32.861Z,21.00
2019-05-17T06:50:03.206Z,20.60
2019-05-17T06:52:32.743Z,19.20
2019-05-17T06:55:05.711Z,20.13
2019-05-17T06:57:32.904Z,20.03
2019-05-17T07:00:03.186Z,19.70
2019-05-17T07:02:35.928Z,21.50
2019-05-17T07:05:07.301Z,19.03
2019-05-17T07:07:36.584Z,18.70
2019-05-17T07:10:06.670Z,17.90
2019-05-17T07:12:36.021Z,17.93
2019-05-17T07:15:06.250Z,16.57
2019-05-17T07:17:35.565Z,17.57
2019-05-17T07:20:05.165Z,16.33
2019-05-17T07:22:34.385Z,16.77
2019-05-17T07:25:03.591Z,16.90
2019-05-17T07:27:41.336Z,27.97
2019-05-17T07:30:04.204Z,36.17
2019-05-17T07:32:33.735Z,17.00
2019-05-17T07:35:02.916Z,15.00
2019-05-17T07:37:32.113Z,15.37
2019-05-17T07:40:05.038Z,15.30
2019-05-17T07:42:32.500Z,14.03
2019-05-17T07:45:01.709Z,13.97
2019-05-17T07:47:30.978Z,13.87
2019-05-17T07:50:01.112Z,15.30
2019-05-17T07:52:30.512Z,14.90
2019-05-17T07:55:02.306Z,13.93
2019-05-17T07:57:30.793Z,13.03
2019-05-17T08:00:20.222Z,14.20
2019-05-17T08:02:50.458Z,13.60
2019-05-17T08:05:21.358Z,15.43
2019-05-17T08:07:51.066Z,14.30
2019-05-17T08:10:20.563Z,15.37
2019-05-17T08:12:49.940Z,14.00
2019-05-17T08:15:19.765Z,13.60
2019-05-17T08:17:50.270Z,12.33
2019-05-17T08:20:20.370Z,12.77
2019-05-17T08:22:50.194Z,13.67
2019-05-17T08:25:20.072Z,12.90
2019-05-17T08:27:50.377Z,15.27
2019-05-17T08:30:20.646Z,13.50
2019-05-17T08:32:50.622Z,13.23
2019-05-17T08:35:19.945Z,12.87
2019-05-17T08:37:49.898Z,14.43
2019-05-17T08:40:20.042Z,13.73
2019-05-17T08:42:50.000Z,12.13
2019-05-17T08:45:20.577Z,12.07
2019-05-17T08:47:50.477Z,14.37
2019-05-17T08:50:20.191Z,13.37
2019-05-17T08:52:49.799Z,11.80
2019-05-17T08:55:20.471Z,12.17
2019-05-17T08:57:50.142Z,16.00
2019-05-17T09:00:20.741Z,14.30
2019-05-17T09:02:50.139Z,12.77
2019-05-17T09:05:21.258Z,12.20
2019-05-17T09:07:50.304Z,12.43
2019-05-17T09:10:20.732Z,12.33
2019-05-17T09:12:50.366Z,11.97
2019-05-17T09:15:20.313Z,11.93
2019-05-17T09:17:49.924Z,11.63
2019-05-17T09:20:20.451Z,11.97
2019-05-17T09:22:51.098Z,12.43
2019-05-17T09:25:22.079Z,11.77
2019-05-17T09:27:51.434Z,10.97
2019-05-17T09:30:21.407Z,12.43
2019-05-17T09:32:50.686Z,10.57
2019-05-17T09:35:20.726Z,12.77
2019-05-17T09:37:50.385Z,11.00
2019-05-17T09:40:20.101Z,11.03
2019-05-17T09:42:49.931Z,11.30
2019-05-17T09:45:21.164Z,10.77
2019-05-17T09:47:50.671Z,11.70
2019-05-17T09:50:20.317Z,13.47
2019-05-17T09:52:49.732Z,20.73
2019-05-17T09:55:19.645Z,12.27
2019-05-17T09:57:49.645Z,12.80
2019-05-17T10:00:20.876Z,10.30
2019-05-17T10:02:50.929Z,9.80
2019-05-17T10:05:20.381Z,11.37
2019-05-17T10:07:50.621Z,10.73
2019-05-17T10:10:20.449Z,10.50
2019-05-17T10:12:50.021Z,9.33
2019-05-17T10:15:20.673Z,10.23
2019-05-17T10:17:50.068Z,10.03
2019-05-17T10:20:19.961Z,8.67
2019-05-17T10:22:50.444Z,9.23
2019-05-17T10:25:20.812Z,10.30
2019-05-17T10:27:49.966Z,9.37
2019-05-17T10:30:20.982Z,8.47
2019-05-17T10:32:50.723Z,10.00
2019-05-17T10:35:20.330Z,11.03
2019-05-17T10:37:50.564Z,10.00
2019-05-17T10:40:20.805Z,9.47
2019-05-17T10:42:50.224Z,9.00
2019-05-17T10:45:19.937Z,10.83
2019-05-17T10:47:50.343Z,8.97
2019-05-17T10:50:20.542Z,8.63
2019-05-17T10:52:49.938Z,8.83
2019-05-17T10:55:19.973Z,8.43
2019-05-17T10:57:50.005Z,8.50
2019-05-17T11:00:20.173Z,8.03
2019-05-17T11:02:50.304Z,10.27
2019-05-17T11:05:20.217Z,8.40
2019-05-17T11:07:50.413Z,7.33
2019-05-17T11:10:20.350Z,7.57
2019-05-17T11:12:49.537Z,8.17
2019-05-17T11:15:18.745Z,10.43
2019-05-17T11:17:48.023Z,7.63
2019-05-17T11:20:18.186Z,8.57
2019-05-17T11:22:47.373Z,7.67
2019-05-17T11:25:16.777Z,8.33
2019-05-17T11:27:45.948Z,7.73
2019-05-17T11:30:16.319Z,8.33
2019-05-17T11:32:45.475Z,7.87
2019-05-17T11:35:14.902Z,9.10
2019-05-17T11:37:44.092Z,8.13
2019-05-17T11:40:13.931Z,7.10
2019-05-17T11:42:43.102Z,6.90
2019-05-17T11:45:26.758Z,6.43
2019-05-17T11:47:43.413Z,8.13
2019-05-17T11:50:13.066Z,6.93
2019-05-17T11:52:42.309Z,6.43
2019-05-17T11:55:12.451Z,5.57
2019-05-17T11:57:41.608Z,6.63
2019-05-17T12:00:12.020Z,7.40
2019-05-17T12:02:41.209Z,7.50
2019-05-17T12:05:10.638Z,5.53
2019-05-17T12:07:39.930Z,6.27
2019-05-17T12:10:09.692Z,8.47
2019-05-17T12:12:38.871Z,5.93
2019-05-17T12:15:08.117Z,5.77
2019-05-17T12:17:37.609Z,7.20
2019-05-17T12:20:07.870Z,5.07
2019-05-17T12:22:37.200Z,5.77
2019-05-17T12:25:06.863Z,8.77
2019-05-17T12:27:36.114Z,7.20
2019-05-17T12:30:06.905Z,4.70
2019-05-17T12:32:36.114Z,4.53
2019-05-17T12:35:05.606Z,6.00
2019-05-17T12:37:34.938Z,6.77
2019-05-17T12:40:05.116Z,5.90
2019-05-17T12:42:34.432Z,5.73
2019-05-17T12:45:03.985Z,9.83
2019-05-17T12:47:33.189Z,6.20
2019-05-17T12:50:02.393Z,7.30
2019-05-17T12:52:31.789Z,5.43
2019-05-17T12:55:00.962Z,5.53
2019-05-17T12:57:30.125Z,6.10
2019-05-17T12:59:59.501Z,6.07
2019-05-17T13:02:28.793Z,4.57
2019-05-17T13:04:57.976Z,6.07
2019-05-17T13:07:27.138Z,5.80
2019-05-17T13:09:56.444Z,4.53
2019-05-17T13:12:25.606Z,6.20
2019-05-17T13:14:54.781Z,6.13
2019-05-17T13:17:24.353Z,5.60
2019-05-17T13:19:53.540Z,7.93
2019-05-17T13:22:22.745Z,6.60
2019-05-17T13:24:52.053Z,12.57
2019-05-17T13:27:21.196Z,5.67
2019-05-17T13:29:50.448Z,5.97
2019-05-17T13:32:19.596Z,6.07
2019-05-17T13:34:48.753Z,5.10
2019-05-17T13:37:17.951Z,6.33
2019-05-17T13:39:47.106Z,5.67
2019-05-17T13:42:16.288Z,5.90
2019-05-17T13:44:45.445Z,6.37
2019-05-17T13:47:14.705Z,4.23
2019-05-17T13:49:44.294Z,4.47
2019-05-17T13:52:13.477Z,6.03
2019-05-17T13:54:42.817Z,4.87
2019-05-17T13:57:12.063Z,5.27
2019-05-17T13:59:41.519Z,4.23
2019-05-17T14:02:11.154Z,7.43
2019-05-17T14:04:40.488Z,5.30
2019-05-17T14:07:09.772Z,4.97
2019-05-17T14:09:38.941Z,4.17
2019-05-17T14:12:08.198Z,4.53
2019-05-17T14:14:37.352Z,5.47
2019-05-17T14:17:06.741Z,6.67
2019-05-17T14:19:35.902Z,3.40
2019-05-17T14:22:05.332Z,5.77
2019-05-17T14:24:34.472Z,4.17
2019-05-17T14:27:03.664Z,3.83
2019-05-17T14:29:32.896Z,5.40
2019-05-17T14:32:02.298Z,3.90
2019-05-17T14:34:31.821Z,8.57
2019-05-17T14:37:01.092Z,4.13
2019-05-17T14:39:30.259Z,5.90
2019-05-17T14:41:59.687Z,5.40
2019-05-17T14:44:28.864Z,9.53
2019-05-17T14:46:58.251Z,6.80
2019-05-17T14:49:27.699Z,7.93
2019-05-17T14:51:56.994Z,6.17
2019-05-17T14:54:26.161Z,4.83
2019-05-17T14:56:55.345Z,4.50
2019-05-17T14:59:24.610Z,4.67
2019-05-17T15:01:53.789Z,4.50
2019-05-17T15:04:23.050Z,8.87
2019-05-17T15:06:52.405Z,7.73
2019-05-17T15:09:21.714Z,6.27
2019-05-17T15:11:51.117Z,5.80
2019-05-17T15:14:22.280Z,5.43
2019-05-17T15:16:51.677Z,3.87
2019-05-17T15:19:20.981Z,3.50
2019-05-17T15:21:50.707Z,5.43
2019-05-17T15:24:20.000Z,4.57
2019-05-17T15:27:04.169Z,4.90
2019-05-17T15:29:20.127Z,5.83
2019-05-17T15:31:51.972Z,17.70
2019-05-17T15:34:20.551Z,10.20
2019-05-17T15:36:49.924Z,12.77
2019-05-17T15:39:19.259Z,10.20
2019-05-17T15:41:48.906Z,11.37
2019-05-17T15:44:18.353Z,11.23
2019-05-17T15:46:47.661Z,10.23
2019-05-17T15:49:16.937Z,9.50
2019-05-17T15:51:46.230Z,12.23
2019-05-17T15:54:15.678Z,10.77
2019-05-17T15:56:45.088Z,9.33
2019-05-17T15:59:14.330Z,10.93
2019-05-17T16:01:43.638Z,8.37
2019-05-17T16:04:12.993Z,9.67
2019-05-17T16:06:42.528Z,9.27
2019-05-17T16:09:12.115Z,12.57
2019-05-17T16:11:41.426Z,10.50
2019-05-17T16:14:10.884Z,9.40
2019-05-17T16:16:40.222Z,7.93
2019-05-17T16:19:09.451Z,7.37
2019-05-17T16:21:38.842Z,4.93
2019-05-17T16:24:08.091Z,4.33
2019-05-17T16:26:37.320Z,4.77
2019-05-17T16:29:06.957Z,4.27
2019-05-17T16:31:36.162Z,5.93
2019-05-17T16:34:05.388Z,3.47
2019-05-17T16:36:34.690Z,3.87
2019-05-17T16:39:08.247Z,3.27
2019-05-17T16:41:36.302Z,4.37
2019-05-17T16:44:06.574Z,7.03
2019-05-17T16:46:35.827Z,8.53
2019-05-17T16:49:05.513Z,5.63
2019-05-17T16:51:34.696Z,4.43
2019-05-17T16:54:03.961Z,6.07
2019-05-17T16:56:33.144Z,6.87
2019-05-17T16:59:02.608Z,6.37
2019-05-17T17:01:31.892Z,5.17
2019-05-17T17:04:01.100Z,20.03
2019-05-17T17:06:30.265Z,16.83
2019-05-17T17:08:59.585Z,7.50
2019-05-17T17:11:28.758Z,6.50
2019-05-17T17:13:57.987Z,4.47
2019-05-17T17:16:27.198Z,3.67
2019-05-17T17:18:56.364Z,4.00
2019-05-17T17:21:25.640Z,6.90
2019-05-17T17:23:54.886Z,4.30
2019-05-17T17:26:24.088Z,3.23
2019-05-17T17:28:53.262Z,17.97
2019-05-17T17:31:22.544Z,23.40
2019-05-17T17:33:51.703Z,5.40
2019-05-17T17:36:20.969Z,5.47
2019-05-17T17:38:50.124Z,4.77
2019-05-17T17:41:19.366Z,4.63
2019-05-17T17:43:58.105Z,4.43
2019-05-17T17:46:19.590Z,4.30
2019-05-17T17:48:48.751Z,4.93
2019-05-17T17:51:17.917Z,3.70
2019-05-17T17:53:47.078Z,3.50
2019-05-17T17:56:16.286Z,3.23
2019-05-17T17:58:45.534Z,4.90
2019-05-17T18:01:14.784Z,4.17
2019-05-17T18:03:44.100Z,4.03
2019-05-17T18:06:13.318Z,4.83
2019-05-17T18:08:42.518Z,4.10
2019-05-17T18:11:11.739Z,3.37
2019-05-17T18:13:40.923Z,4.07
2019-05-17T18:16:10.095Z,3.10
2019-05-17T18:18:39.417Z,3.57
2019-05-17T18:21:08.586Z,4.00
2019-05-17T18:23:37.852Z,4.00
2019-05-17T18:26:07.241Z,3.97
2019-05-17T18:28:36.428Z,2.63
2019-05-17T18:31:05.589Z,2.73
2019-05-17T18:33:35.015Z,2.60
2019-05-17T18:36:04.144Z,3.77
2019-05-17T18:38:34.910Z,4.60
2019-05-17T18:41:04.248Z,3.40
2019-05-17T18:43:33.463Z,2.50
2019-05-17T18:46:02.699Z,3.20
2019-05-17T18:48:31.907Z,4.30
2019-05-17T18:51:01.094Z,3.97
2019-05-17T18:53:30.370Z,3.00
2019-05-17T18:55:59.642Z,2.50
2019-05-17T18:58:29.173Z,2.60
2019-05-17T19:00:58.565Z,2.67
2019-05-17T19:03:27.747Z,2.97
2019-05-17T19:05:56.995Z,4.33
2019-05-17T19:08:26.489Z,2.90
2019-05-17T19:10:55.667Z,3.10
2019-05-17T19:13:24.972Z,2.87
2019-05-17T19:15:54.156Z,4.10
2019-05-17T19:18:23.378Z,2.67
2019-05-17T19:20:52.671Z,2.43
2019-05-17T19:23:21.821Z,2.27
2019-05-17T19:25:51.313Z,3.10
2019-05-17T19:28:20.749Z,10.87
2019-05-17T19:30:49.915Z,13.70
2019-05-17T19:33:19.305Z,8.03
2019-05-17T19:35:48.492Z,6.90
2019-05-17T19:38:17.948Z,17.20
2019-05-17T19:40:47.497Z,7.93
2019-05-17T19:43:16.652Z,3.80
2019-05-17T19:45:46.610Z,2.50
2019-05-17T19:48:15.800Z,4.70
2019-05-17T19:50:44.955Z,2.97
2019-05-17T19:53:14.583Z,3.23
2019-05-17T19:55:43.793Z,4.17
2019-05-17T19:58:13.145Z,4.70
2019-05-17T20:00:42.397Z,3.57
2019-05-17T20:03:11.683Z,2.87
2019-05-17T20:05:41.066Z,4.40
2019-05-17T20:08:10.285Z,3.23
2019-05-17T20:10:39.601Z,4.07
2019-05-17T20:13:08.738Z,3.83
2019-05-17T20:15:38.048Z,3.43
2019-05-17T20:18:07.423Z,3.77
2019-05-17T20:20:36.861Z,2.67
2019-05-17T20:23:06.042Z,3.70
2019-05-17T20:25:35.461Z,2.70
2019-05-17T20:28:04.622Z,2.73
2019-05-17T20:30:33.866Z,3.00
2019-05-17T20:33:03.112Z,3.93
2019-05-17T20:35:32.680Z,4.30
2019-05-17T20:38:01.917Z,3.03
2019-05-17T20:40:31.166Z,3.47
2019-05-17T20:43:00.358Z,9.43
2019-05-17T20:45:33.089Z,14.23
2019-05-17T20:48:00.474Z,3.40
2019-05-17T20:50:29.707Z,3.30
2019-05-17T20:52:58.977Z,3.37
2019-05-17T20:55:28.165Z,2.50
2019-05-17T20:57:57.497Z,3.33
2019-05-17T21:00:26.720Z,4.17
2019-05-17T21:02:55.920Z,3.60
2019-05-17T21:05:25.089Z,3.77
2019-05-17T21:07:54.348Z,3.80
2019-05-17T21:10:23.529Z,2.90
2019-05-17T21:12:54.648Z,3.43
2019-05-17T21:15:23.875Z,4.03
2019-05-17T21:17:53.045Z,4.60
2019-05-17T21:20:22.238Z,5.53
2019-05-17T21:22:51.422Z,4.63
2019-05-17T21:25:20.580Z,3.80
2019-05-17T21:27:49.778Z,5.23
2019-05-17T21:30:19.228Z,5.13
2019-05-17T21:32:48.425Z,10.03
2019-05-17T21:35:17.797Z,5.93
2019-05-17T21:37:47.405Z,5.47
2019-05-17T21:40:17.472Z,5.00
2019-05-17T21:42:46.642Z,2.97
2019-05-17T21:45:17.338Z,4.93
2019-05-17T21:47:46.526Z,7.30
2019-05-17T21:50:16.355Z,6.13
2019-05-17T21:52:45.628Z,4.73
2019-05-17T21:55:15.129Z,4.90
2019-05-17T21:57:44.309Z,5.23
2019-05-17T22:00:16.956Z,6.90
2019-05-17T22:02:46.203Z,5.80
2019-05-17T22:05:15.477Z,5.93
2019-05-17T22:07:45.013Z,4.80
2019-05-17T22:10:14.557Z,4.83
2019-05-17T22:12:43.976Z,5.10
2019-05-17T22:15:13.495Z,5.77
2019-05-17T22:17:42.794Z,4.67
2019-05-17T22:20:11.992Z,8.37
2019-05-17T22:22:41.276Z,6.50
2019-05-17T22:25:10.721Z,6.37
2019-05-17T22:27:40.321Z,5.80
2019-05-17T22:30:09.669Z,4.80
2019-05-17T22:32:39.384Z,6.30
2019-05-17T22:35:08.844Z,7.37
2019-05-17T22:37:38.796Z,4.93
2019-05-17T22:40:08.201Z,4.37
2019-05-17T22:42:39.423Z,5.70
2019-05-17T22:45:08.902Z,5.67
2019-05-17T22:47:38.073Z,5.00
2019-05-17T22:50:07.605Z,4.77
2019-05-17T22:52:36.804Z,5.90
2019-05-17T22:55:06.309Z,5.27
2019-05-17T22:57:36.242Z,6.67
2019-05-17T23:00:05.856Z,5.57
2019-05-17T23:02:35.021Z,5.40
2019-05-17T23:05:04.360Z,6.43
2019-05-17T23:07:33.987Z,6.60
2019-05-17T23:10:03.680Z,5.07
2019-05-17T23:12:32.988Z,7.03
2019-05-17T23:15:02.136Z,5.30
2019-05-17T23:17:31.308Z,6.10
2019-05-17T23:20:00.712Z,6.13
2019-05-17T23:22:30.297Z,5.13
2019-05-17T23:24:59.788Z,5.50
2019-05-17T23:27:29.311Z,5.83
2019-05-17T23:29:58.816Z,6.73
2019-05-17T23:32:27.992Z,5.80
2019-05-17T23:34:57.140Z,5.80
2019-05-17T23:37:26.445Z,5.00
2019-05-17T23:39:55.692Z,5.37
2019-05-17T23:42:24.879Z,5.13
2019-05-17T23:44:54.049Z,7.90
2019-05-17T23:47:23.233Z,7.03
2019-05-17T23:49:52.505Z,5.07
2019-05-17T23:52:21.801Z,5.47
2019-05-17T23:54:51.308Z,6.40
2019-05-17T23:57:20.573Z,5.63
2019-05-17T23:59:49.760Z,5.37
